createdAt,value
2022-12-25T00:00:02.402Z,2.22
2022-12-25T00:02:29.836Z,2.22
2022-12-25T00:04:56.510Z,2.26
2022-12-25T00:07:23.062Z,2.25
2022-12-25T00:09:49.614Z,2.25
2022-12-25T00:12:16.244Z,2.25
2022-12-25T00:14:42.758Z,2.31
2022-12-25T00:17:09.322Z,2.28
2022-12-25T00:19:36.200Z,2.27
2022-12-25T00:22:02.772Z,2.37
2022-12-25T00:24:29.291Z,2.63
2022-12-25T00:26:55.828Z,2.52
2022-12-25T00:29:22.404Z,2.48
2022-12-25T00:31:48.942Z,2.47
2022-12-25T00:34:15.606Z,2.49
2022-12-25T00:36:42.495Z,2.53
2022-12-25T00:39:09.411Z,2.60
2022-12-25T00:41:54.374Z,2.64
2022-12-25T00:44:21.088Z,2.52
2022-12-25T00:46:47.663Z,2.51
2022-12-25T00:49:14.268Z,2.47
2022-12-25T00:51:40.840Z,2.39
2022-12-25T00:54:07.730Z,2.34
2022-12-25T00:56:34.327Z,2.34
2022-12-25T00:59:00.874Z,2.37
2022-12-25T01:01:27.461Z,2.42
2022-12-25T01:03:55.014Z,2.41
2022-12-25T01:06:21.559Z,2.42
2022-12-25T01:09:06.654Z,2.40
2022-12-25T01:11:33.160Z,2.41
2022-12-25T01:13:59.740Z,2.44
2022-12-25T01:16:26.519Z,2.47
2022-12-25T01:18:53.074Z,2.51
2022-12-25T01:21:22.710Z,2.53
2022-12-25T01:23:50.219Z,2.46
2022-12-25T01:26:17.661Z,2.46
2022-12-25T01:28:44.179Z,2.46
2022-12-25T01:31:12.184Z,2.45
2022-12-25T01:33:39.306Z,2.49
2022-12-25T01:36:13.428Z,2.48
2022-12-25T01:38:39.958Z,2.48
2022-12-25T01:41:06.451Z,2.49
2022-12-25T01:43:33.795Z,2.56
2022-12-25T01:46:00.752Z,2.54
2022-12-25T01:48:38.530Z,2.51
2022-12-25T01:51:07.620Z,2.48
2022-12-25T01:53:34.193Z,2.44
2022-12-25T01:56:06.123Z,2.43
2022-12-25T01:58:32.792Z,2.41
2022-12-25T02:00:59.386Z,2.36
2022-12-25T02:03:26.106Z,2.31
2022-12-25T02:05:53.454Z,2.31
2022-12-25T02:08:21.031Z,2.30
2022-12-25T02:10:47.864Z,2.28
2022-12-25T02:13:15.782Z,2.31
2022-12-25T02:15:52.838Z,2.39
2022-12-25T02:18:38.175Z,2.45
2022-12-25T02:21:18.221Z,2.47
2022-12-25T02:23:47.903Z,2.46
2022-12-25T02:26:25.130Z,2.52
2022-12-25T02:28:52.502Z,2.53
2022-12-25T02:31:24.215Z,2.50
2022-12-25T02:34:13.884Z,2.48
2022-12-25T02:36:45.113Z,2.45
2022-12-25T02:39:33.979Z,2.39
2022-12-25T02:42:02.607Z,2.34
2022-12-25T02:44:49.078Z,2.36
2022-12-25T02:47:34.764Z,2.37
2022-12-25T02:53:52.486Z,2.24
2022-12-25T02:56:38.647Z,2.24
2022-12-25T02:59:24.177Z,2.23
2022-12-25T03:02:09.577Z,2.24
2022-12-25T03:04:55.657Z,2.24
2022-12-25T03:07:23.591Z,2.18
2022-12-25T03:10:11.847Z,2.19
2022-12-25T03:12:50.101Z,2.16
2022-12-25T03:15:36.381Z,2.08
2022-12-25T03:18:05.312Z,2.07
2022-12-25T03:20:50.830Z,2.07
2022-12-25T03:23:38.781Z,2.06
2022-12-25T03:26:24.180Z,2.02
2022-12-25T03:28:50.683Z,1.94
2022-12-25T03:31:20.318Z,1.90
2022-12-25T03:34:11.595Z,1.80
2022-12-25T03:37:20.011Z,1.73
2022-12-25T03:39:57.108Z,1.67
2022-12-25T03:42:49.318Z,1.68
2022-12-25T03:45:38.726Z,1.65
2022-12-25T03:48:25.319Z,1.61
2022-12-25T03:51:17.008Z,1.57
2022-12-25T03:54:04.786Z,1.52
2022-12-25T03:56:50.927Z,1.54
2022-12-25T03:59:39.502Z,1.51
2022-12-25T04:02:25.052Z,1.50
2022-12-25T04:05:10.344Z,1.47
2022-12-25T04:07:55.499Z,1.50
2022-12-25T04:10:40.792Z,1.54
2022-12-25T04:13:25.971Z,1.52
2022-12-25T04:16:11.643Z,1.42
2022-12-25T04:18:56.631Z,1.28
2022-12-25T04:21:41.698Z,1.21
2022-12-25T04:24:27.991Z,1.27
2022-12-25T04:27:12.960Z,1.31
2022-12-25T04:29:57.859Z,1.29
2022-12-25T04:32:43.024Z,1.41
2022-12-25T04:35:28.656Z,1.38
2022-12-25T04:37:55.295Z,1.25
2022-12-25T04:40:21.778Z,1.22
2022-12-25T04:42:49.921Z,1.18
2022-12-25T04:45:16.556Z,1.17
2022-12-25T04:47:43.064Z,1.15
2022-12-25T04:50:09.747Z,1.13
2022-12-25T04:52:37.397Z,1.08
2022-12-25T04:55:04.833Z,1.00
2022-12-25T04:57:31.382Z,0.97
2022-12-25T04:59:57.917Z,0.97
2022-12-25T05:02:24.658Z,0.94
2022-12-25T05:04:51.362Z,0.93
2022-12-25T05:07:17.895Z,1.16
2022-12-25T05:09:44.398Z,1.08
2022-12-25T05:12:11.047Z,1.07
2022-12-25T05:14:37.621Z,0.66
2022-12-25T05:17:04.141Z,0.64
2022-12-25T05:19:30.709Z,0.58
2022-12-25T05:21:57.282Z,0.58
2022-12-25T05:24:25.976Z,0.49
2022-12-25T05:26:52.467Z,0.52
2022-12-25T05:29:19.011Z,0.51
2022-12-25T05:31:45.610Z,0.55
2022-12-25T05:34:12.252Z,0.66
2022-12-25T05:36:39.065Z,0.75
2022-12-25T05:39:05.552Z,0.73
2022-12-25T05:41:34.464Z,0.75
2022-12-25T05:44:01.680Z,0.73
2022-12-25T05:46:28.319Z,0.69
2022-12-25T05:48:54.888Z,0.63
2022-12-25T05:51:21.462Z,0.61
2022-12-25T05:53:48.027Z,0.55
2022-12-25T05:56:14.617Z,0.52
2022-12-25T05:58:41.104Z,0.50
2022-12-25T06:01:18.759Z,0.52
2022-12-25T06:03:45.495Z,0.52
2022-12-25T06:06:12.402Z,0.57
2022-12-25T06:08:38.982Z,0.53
2022-12-25T06:11:06.295Z,0.56
2022-12-25T06:13:33.783Z,0.56
2022-12-25T06:16:03.016Z,0.56
2022-12-25T06:18:29.513Z,0.55
2022-12-25T06:20:56.048Z,0.47
2022-12-25T06:23:22.575Z,0.37
2022-12-25T06:25:49.140Z,0.32
2022-12-25T06:28:15.722Z,0.21
2022-12-25T06:30:42.236Z,0.09
2022-12-25T06:33:08.807Z,-0.03
2022-12-25T06:35:38.518Z,-0.03
2022-12-25T06:38:05.199Z,0.01
2022-12-25T06:40:31.682Z,0.08
2022-12-25T06:42:58.139Z,-0.01
2022-12-25T06:45:24.687Z,-0.05
2022-12-25T06:47:51.326Z,-0.02
2022-12-25T06:50:17.927Z,0.05
2022-12-25T06:52:44.496Z,0.10
2022-12-25T06:55:11.020Z,0.13
2022-12-25T06:57:37.541Z,0.20
2022-12-25T07:00:04.312Z,0.26
2022-12-25T07:02:32.470Z,0.26
2022-12-25T07:05:00.061Z,0.33
2022-12-25T07:07:26.609Z,0.25
2022-12-25T07:09:53.152Z,0.25
2022-12-25T07:12:23.291Z,0.24
2022-12-25T07:14:50.263Z,0.21
2022-12-25T07:17:17.340Z,0.20
2022-12-25T07:19:45.425Z,0.20
2022-12-25T07:22:12.467Z,0.22
2022-12-25T07:24:38.969Z,0.18
2022-12-25T07:27:05.787Z,0.15
2022-12-25T07:29:32.331Z,0.16
2022-12-25T07:31:59.096Z,0.32
2022-12-25T07:34:25.746Z,0.39
2022-12-25T07:36:52.263Z,0.49
2022-12-25T07:39:18.838Z,0.55
2022-12-25T07:41:45.378Z,0.67
2022-12-25T07:44:11.919Z,0.71
2022-12-25T07:46:38.441Z,0.79
2022-12-25T07:49:04.961Z,0.69
2022-12-25T07:51:31.602Z,0.80
2022-12-25T07:53:58.156Z,0.78
2022-12-25T07:56:24.751Z,0.79
2022-12-25T07:58:51.359Z,0.77
2022-12-25T08:01:25.492Z,0.77
2022-12-25T08:03:53.600Z,0.77
2022-12-25T08:06:20.859Z,0.89
2022-12-25T08:08:47.425Z,0.99
2022-12-25T08:11:14.308Z,1.04
2022-12-25T08:13:40.921Z,1.05
2022-12-25T08:16:08.783Z,1.09
2022-12-25T08:18:36.373Z,1.13
2022-12-25T08:21:04.076Z,1.16
2022-12-25T08:23:30.625Z,1.20
2022-12-25T08:26:05.100Z,1.28
2022-12-25T08:28:32.890Z,1.34
2022-12-25T08:30:59.505Z,1.42
2022-12-25T08:33:26.069Z,1.56
2022-12-25T08:35:52.590Z,1.66
2022-12-25T08:38:19.197Z,1.67
2022-12-25T08:40:45.714Z,1.75
2022-12-25T08:43:12.232Z,1.83
2022-12-25T08:45:38.770Z,1.80
2022-12-25T08:48:05.305Z,1.89
2022-12-25T08:50:31.858Z,1.99
2022-12-25T08:52:58.358Z,2.13
2022-12-25T08:55:24.964Z,2.22
2022-12-25T08:57:52.493Z,2.25
2022-12-25T09:00:19.249Z,2.28
2022-12-25T09:02:45.880Z,2.32
2022-12-25T09:05:12.560Z,2.43
2022-12-25T09:07:39.108Z,2.53
2022-12-25T09:10:06.308Z,2.65
2022-12-25T09:12:32.808Z,2.85
2022-12-25T09:14:59.352Z,2.93
2022-12-25T09:17:25.830Z,3.09
2022-12-25T09:19:52.353Z,3.20
2022-12-25T09:22:19.391Z,3.28
2022-12-25T09:24:45.986Z,3.32
2022-12-25T09:27:12.531Z,3.34
2022-12-25T09:29:39.232Z,3.36
2022-12-25T09:32:06.029Z,3.41
2022-12-25T09:34:32.736Z,3.44
2022-12-25T09:36:59.283Z,3.47
2022-12-25T09:39:26.907Z,3.54
2022-12-25T09:41:59.946Z,3.64
2022-12-25T09:44:32.222Z,3.72
2022-12-25T09:47:01.636Z,3.85
2022-12-25T09:49:40.436Z,3.98
2022-12-25T09:52:16.143Z,4.04
2022-12-25T09:54:48.846Z,4.20
2022-12-25T09:57:15.447Z,4.28
2022-12-25T09:59:42.880Z,4.43
2022-12-25T10:02:24.860Z,4.53
2022-12-25T10:04:57.510Z,4.53
2022-12-25T10:07:56.293Z,4.69
2022-12-25T10:10:31.744Z,4.74
2022-12-25T10:12:58.246Z,4.68
2022-12-25T10:15:24.773Z,4.71
2022-12-25T10:17:54.157Z,4.83
2022-12-25T10:20:20.708Z,4.76
2022-12-25T10:22:50.985Z,4.80
2022-12-25T10:25:19.644Z,4.80
2022-12-25T10:27:49.572Z,4.75
2022-12-25T10:30:17.459Z,4.70
2022-12-25T10:32:44.714Z,4.74
2022-12-25T10:35:12.183Z,4.96
2022-12-25T10:37:39.196Z,4.92
2022-12-25T10:40:21.386Z,4.94
2022-12-25T10:42:51.017Z,4.94
2022-12-25T10:45:17.619Z,4.87
2022-12-25T10:47:44.239Z,4.89
2022-12-25T10:50:17.500Z,4.94
2022-12-25T10:53:04.965Z,4.94
2022-12-25T10:55:32.036Z,5.34
2022-12-25T10:57:58.774Z,5.51
2022-12-25T11:00:26.945Z,5.46
2022-12-25T11:02:54.139Z,5.43
2022-12-25T11:05:25.561Z,5.35
2022-12-25T11:07:56.134Z,5.33
2022-12-25T11:10:31.615Z,5.34
2022-12-25T11:12:59.668Z,5.34
2022-12-25T11:15:35.893Z,5.46
2022-12-25T11:18:19.457Z,5.53
2022-12-25T11:20:50.189Z,5.51
2022-12-25T11:23:20.957Z,5.53
2022-12-25T11:25:58.019Z,5.60
2022-12-25T11:28:25.695Z,5.78
2022-12-25T11:30:57.978Z,5.80
2022-12-25T11:33:27.294Z,5.78
2022-12-25T11:35:55.620Z,5.76
2022-12-25T11:38:22.221Z,5.68
2022-12-25T11:40:54.907Z,5.60
2022-12-25T11:43:45.631Z,5.52
2022-12-25T11:46:17.021Z,5.60
2022-12-25T11:48:47.125Z,5.60
2022-12-25T11:51:15.286Z,5.51
2022-12-25T11:53:48.137Z,5.50
2022-12-25T11:56:17.462Z,5.61
2022-12-25T11:58:49.766Z,5.74
2022-12-25T12:01:31.203Z,5.86
2022-12-25T12:03:59.739Z,5.86
2022-12-25T12:06:30.011Z,6.01
2022-12-25T12:09:01.615Z,6.09
2022-12-25T12:11:33.615Z,6.04
2022-12-25T12:14:00.136Z,6.08
2022-12-25T12:16:26.746Z,6.11
2022-12-25T12:18:53.306Z,6.06
2022-12-25T12:21:25.801Z,5.96
2022-12-25T12:24:00.390Z,6.06
2022-12-25T12:26:28.255Z,6.17
2022-12-25T12:28:57.072Z,6.13
2022-12-25T12:31:23.927Z,6.30
2022-12-25T12:33:55.287Z,6.36
2022-12-25T12:36:35.607Z,6.29
2022-12-25T12:39:03.249Z,6.13
2022-12-25T12:41:49.993Z,6.03
2022-12-25T12:44:17.696Z,6.24
2022-12-25T12:46:55.046Z,6.21
2022-12-25T12:49:21.824Z,6.13
2022-12-25T12:51:48.475Z,6.22
2022-12-25T12:54:17.240Z,6.26
2022-12-25T12:56:54.749Z,6.09
2022-12-25T12:59:21.283Z,6.05
2022-12-25T13:01:51.034Z,6.00
2022-12-25T13:04:17.728Z,5.94
2022-12-25T13:06:47.696Z,5.95
2022-12-25T13:09:20.130Z,6.16
2022-12-25T13:11:47.333Z,6.13
2022-12-25T13:14:16.230Z,6.12
2022-12-25T13:16:43.990Z,6.11
2022-12-25T13:19:15.089Z,6.07
2022-12-25T13:21:51.060Z,6.08
2022-12-25T13:24:22.110Z,6.07
2022-12-25T13:26:48.617Z,6.11
2022-12-25T13:29:34.012Z,6.13
2022-12-25T13:32:01.664Z,6.10
2022-12-25T13:34:31.277Z,6.05
2022-12-25T13:37:06.168Z,6.05
2022-12-25T13:39:33.429Z,6.12
2022-12-25T13:42:06.102Z,6.13
2022-12-25T13:44:41.524Z,6.10
2022-12-25T13:47:14.344Z,6.11
2022-12-25T13:49:40.845Z,6.09
2022-12-25T13:52:11.920Z,6.04
2022-12-25T13:54:38.503Z,6.09
2022-12-25T13:57:07.947Z,6.06
2022-12-25T13:59:34.493Z,6.02
2022-12-25T14:02:01.584Z,5.97
2022-12-25T14:04:28.617Z,5.93
2022-12-25T14:06:55.177Z,5.88
2022-12-25T14:09:22.347Z,5.82
2022-12-25T14:11:51.334Z,5.72
2022-12-25T14:14:20.705Z,5.60
2022-12-25T14:16:51.239Z,5.55
2022-12-25T14:19:24.081Z,5.52
2022-12-25T14:21:53.275Z,5.46
2022-12-25T14:24:22.169Z,5.37
2022-12-25T14:26:56.580Z,5.34
2022-12-25T14:29:28.159Z,5.25
2022-12-25T14:31:57.234Z,5.15
2022-12-25T14:34:25.402Z,5.13
2022-12-25T14:36:52.662Z,5.10
2022-12-25T14:39:25.194Z,5.06
2022-12-25T14:41:53.064Z,4.98
2022-12-25T14:44:25.920Z,4.84
2022-12-25T14:47:02.931Z,4.78
2022-12-25T14:49:31.449Z,4.78
2022-12-25T14:51:58.532Z,4.72
2022-12-25T14:54:25.812Z,4.64
2022-12-25T14:56:54.009Z,4.53
2022-12-25T14:59:23.587Z,4.51
2022-12-25T15:01:51.939Z,4.51
2022-12-25T15:04:20.579Z,4.46
2022-12-25T15:06:53.255Z,4.44
2022-12-25T15:09:20.123Z,4.39
2022-12-25T15:11:50.482Z,4.37
2022-12-25T15:14:17.137Z,4.31
2022-12-25T15:16:55.235Z,4.19
2022-12-25T15:19:39.655Z,4.11
2022-12-25T15:22:06.661Z,4.06
2022-12-25T15:24:33.172Z,4.03
2022-12-25T15:27:00.832Z,4.00
2022-12-25T15:32:16.433Z,3.80
2022-12-25T15:34:43.013Z,3.79
2022-12-25T15:37:09.534Z,3.81
2022-12-25T15:39:36.024Z,3.82
2022-12-25T15:42:11.679Z,3.76
2022-12-25T15:44:38.518Z,3.52
2022-12-25T15:47:05.334Z,3.44
2022-12-25T15:49:31.924Z,3.42
2022-12-25T15:51:58.439Z,3.36
2022-12-25T15:54:24.971Z,3.32
2022-12-25T15:56:52.878Z,3.29
2022-12-25T15:59:20.389Z,3.29
2022-12-25T16:01:53.240Z,3.28
2022-12-25T16:04:20.082Z,3.25
2022-12-25T16:06:46.936Z,3.19
2022-12-25T16:09:14.484Z,3.16
2022-12-25T16:11:42.055Z,3.10
2022-12-25T16:14:09.038Z,3.05
2022-12-25T16:16:36.078Z,3.05
2022-12-25T16:19:02.708Z,2.98
2022-12-25T16:21:32.112Z,2.92
2022-12-25T16:23:58.675Z,2.83
2022-12-25T16:26:25.232Z,2.79
2022-12-25T16:28:51.825Z,2.79
2022-12-25T16:31:18.348Z,2.75
2022-12-25T16:33:44.889Z,2.72
2022-12-25T16:36:11.429Z,2.68
2022-12-25T16:38:37.939Z,2.67
2022-12-25T16:41:04.549Z,2.65
2022-12-25T16:43:31.058Z,2.62
2022-12-25T16:45:57.728Z,2.57
2022-12-25T16:48:24.306Z,2.55
2022-12-25T16:50:50.838Z,2.55
2022-12-25T16:53:17.482Z,2.50
2022-12-25T16:55:43.982Z,2.48
2022-12-25T16:58:10.492Z,2.49
2022-12-25T17:00:37.097Z,2.42
2022-12-25T17:03:03.829Z,2.40
2022-12-25T17:05:32.652Z,2.34
2022-12-25T17:07:59.533Z,2.33
2022-12-25T17:10:26.060Z,2.32
2022-12-25T17:12:52.563Z,2.25
2022-12-25T17:15:19.104Z,2.22
2022-12-25T17:17:45.652Z,2.21
2022-12-25T17:20:12.385Z,2.18
2022-12-25T17:22:38.924Z,2.12
2022-12-25T17:25:05.641Z,2.10
2022-12-25T17:27:32.198Z,2.12
2022-12-25T17:29:58.715Z,2.07
2022-12-25T17:32:25.284Z,2.03
2022-12-25T17:34:51.905Z,1.96
2022-12-25T17:37:18.405Z,1.96
2022-12-25T17:39:44.968Z,1.99
2022-12-25T17:42:11.526Z,1.91
2022-12-25T17:44:38.094Z,1.85
2022-12-25T17:47:04.779Z,1.77
2022-12-25T17:49:31.542Z,1.74
2022-12-25T17:51:58.080Z,1.70
2022-12-25T17:54:24.601Z,1.70
2022-12-25T17:56:51.157Z,1.68
2022-12-25T17:59:23.210Z,1.66
2022-12-25T18:01:49.910Z,1.63
2022-12-25T18:04:16.557Z,1.50
2022-12-25T18:06:43.140Z,1.47
2022-12-25T18:09:11.364Z,1.48
2022-12-25T18:11:40.132Z,1.39
2022-12-25T18:14:07.248Z,1.34
2022-12-25T18:16:35.655Z,1.37
2022-12-25T18:19:02.237Z,1.33
2022-12-25T18:21:29.531Z,1.32
2022-12-25T18:23:56.327Z,1.31
2022-12-25T18:26:23.219Z,1.31
2022-12-25T18:28:49.858Z,1.34
2022-12-25T18:31:18.157Z,1.34
2022-12-25T18:33:44.835Z,1.39
2022-12-25T18:36:15.464Z,1.48
2022-12-25T18:38:42.771Z,1.41
2022-12-25T18:41:09.867Z,1.32
2022-12-25T18:43:52.569Z,1.27
2022-12-25T18:46:24.261Z,1.25
2022-12-25T18:48:51.464Z,1.23
2022-12-25T18:51:18.134Z,1.23
2022-12-25T18:53:44.656Z,1.28
2022-12-25T18:56:12.871Z,1.23
2022-12-25T18:58:39.526Z,1.17
2022-12-25T19:01:35.224Z,1.16
2022-12-25T19:04:05.557Z,1.19
2022-12-25T19:06:33.517Z,1.16
2022-12-25T19:09:00.266Z,1.25
2022-12-25T19:11:26.970Z,1.16
2022-12-25T19:13:53.534Z,1.13
2022-12-25T19:16:20.089Z,1.12
2022-12-25T19:18:46.778Z,1.08
2022-12-25T19:21:13.328Z,1.10
2022-12-25T19:23:39.916Z,1.20
2022-12-25T19:26:07.500Z,1.14
2022-12-25T19:28:34.238Z,1.10
2022-12-25T19:31:01.184Z,1.06
2022-12-25T19:33:27.810Z,1.04
2022-12-25T19:35:58.719Z,1.02
2022-12-25T19:38:25.266Z,0.99
2022-12-25T19:41:01.074Z,1.00
2022-12-25T19:43:32.951Z,1.00
2022-12-25T19:46:00.037Z,1.02
2022-12-25T19:48:26.648Z,0.95
2022-12-25T19:50:53.398Z,0.97
2022-12-25T19:53:23.205Z,0.99
2022-12-25T19:55:53.717Z,0.78
2022-12-25T19:58:21.037Z,0.68
2022-12-25T20:01:00.755Z,0.64
2022-12-25T20:03:27.617Z,0.61
2022-12-25T20:05:54.255Z,0.63
2022-12-25T20:08:20.800Z,0.64
2022-12-25T20:10:47.320Z,0.63
2022-12-25T20:13:13.931Z,0.52
2022-12-25T20:15:40.525Z,0.46
2022-12-25T20:18:07.065Z,0.45
2022-12-25T20:20:33.585Z,0.39
2022-12-25T20:23:00.112Z,0.43
2022-12-25T20:25:26.687Z,0.50
2022-12-25T20:27:53.207Z,0.54
2022-12-25T20:30:19.802Z,0.54
2022-12-25T20:32:50.352Z,0.57
2022-12-25T20:35:17.399Z,0.52
2022-12-25T20:37:43.988Z,0.53
2022-12-25T20:40:11.000Z,0.53
2022-12-25T20:42:37.855Z,0.54
2022-12-25T20:45:06.782Z,0.54
2022-12-25T20:47:34.280Z,0.50
2022-12-25T20:50:00.846Z,0.57
2022-12-25T20:52:27.372Z,0.56
2022-12-25T20:54:53.910Z,0.53
2022-12-25T20:57:20.467Z,0.46
2022-12-25T20:59:47.065Z,0.49
2022-12-25T21:02:35.961Z,0.45
2022-12-25T21:05:00.132Z,0.39
2022-12-25T21:07:26.726Z,0.36
2022-12-25T21:09:53.244Z,0.36
2022-12-25T21:12:19.991Z,0.37
2022-12-25T21:14:46.632Z,0.50
2022-12-25T21:17:13.174Z,0.44
2022-12-25T21:19:39.758Z,0.38
2022-12-25T21:22:06.274Z,0.39
2022-12-25T21:24:32.856Z,0.34
2022-12-25T21:26:59.558Z,0.30
2022-12-25T21:29:26.116Z,0.29
2022-12-25T21:32:12.266Z,0.28
2022-12-25T21:34:38.858Z,0.26
2022-12-25T21:37:05.483Z,0.28
2022-12-25T21:39:31.949Z,0.38
2022-12-25T21:41:59.621Z,0.42
2022-12-25T21:44:26.199Z,0.38
2022-12-25T21:46:52.670Z,0.38
2022-12-25T21:49:39.194Z,0.33
2022-12-25T21:52:08.771Z,0.31
2022-12-25T21:54:35.783Z,0.40
2022-12-25T21:57:02.322Z,0.37
2022-12-25T21:59:28.842Z,0.30
2022-12-25T22:01:55.470Z,0.28
2022-12-25T22:04:22.906Z,0.25
2022-12-25T22:07:07.983Z,0.25
2022-12-25T22:09:34.559Z,0.29
2022-12-25T22:12:39.319Z,0.36
2022-12-25T22:15:07.502Z,0.34
2022-12-25T22:17:54.243Z,0.29
2022-12-25T22:20:38.703Z,0.31
2022-12-25T22:23:05.402Z,0.29
2022-12-25T22:25:31.976Z,0.25
2022-12-25T22:27:58.587Z,0.22
2022-12-25T22:30:28.998Z,0.22
2022-12-25T22:32:55.921Z,0.24
2022-12-25T22:35:22.975Z,0.23
2022-12-25T22:37:49.904Z,0.25
2022-12-25T22:40:17.757Z,0.23
2022-12-25T22:42:44.353Z,0.24
2022-12-25T22:45:11.095Z,0.30
2022-12-25T22:47:37.609Z,0.30
2022-12-25T22:50:04.547Z,0.26
2022-12-25T22:52:31.075Z,0.35
2022-12-25T22:54:57.648Z,0.32
2022-12-25T22:57:24.200Z,0.38
2022-12-25T22:59:51.945Z,0.39
2022-12-25T23:02:18.752Z,0.44
2022-12-25T23:04:45.431Z,0.43
2022-12-25T23:07:14.597Z,0.39
2022-12-25T23:09:41.713Z,0.46
2022-12-25T23:12:28.762Z,0.44
2022-12-25T23:14:55.573Z,0.49
2022-12-25T23:17:40.718Z,0.43
2022-12-25T23:20:26.216Z,0.40
2022-12-25T23:23:11.838Z,0.32
2022-12-25T23:25:56.746Z,0.35
2022-12-25T23:28:41.670Z,0.32
2022-12-25T23:31:09.480Z,0.36
2022-12-25T23:33:36.084Z,0.39
2022-12-25T23:36:02.604Z,0.44
2022-12-25T23:38:29.191Z,0.44
2022-12-25T23:40:55.723Z,0.55
2022-12-25T23:43:22.263Z,0.46
2022-12-25T23:45:48.759Z,0.41
2022-12-25T23:48:15.537Z,0.39
2022-12-25T23:50:42.110Z,0.39
2022-12-25T23:53:09.549Z,0.40
2022-12-25T23:55:36.412Z,0.38
2022-12-25T23:58:02.913Z,0.36
